Time;durP1;ratioP1;P1;durP2;ratioP2;P2;SDS_P1;SDS_P2;PMS_P1;PMS_P2;Temp;Humidity;BMP_temperature;BMP_pressure;BME280_temperature;BME280_humidity;BME280_pressure;Samples;Min_cycle;Max_cycle;Signal;HPM_P1;HPM_P2
2023/01/17 00:02:09;;;;;;;10.48;7.35;;;;;;;20.12;48.03;98804.28;5074133;28;20055;-49
2023/01/17 00:10:13;;;;;;;11.77;6.95;;;;;;;20.11;48.11;98818.72;5073951;28;20059;-50
2023/01/17 00:12:49;;;;;;;9.73;7.93;;;;;;;20.11;48.11;98819.56;5073741;28;20055;-50
2023/01/17 00:15:18;;;;;;;10.60;7.55;;;;;;;20.10;47.78;98825.97;5073874;28;20044;-53
2023/01/17 00:17:47;;;;;;;8.80;7.05;;;;;;;20.10;47.99;98830.50;5073905;28;20045;-57
2023/01/17 00:26:04;;;;;;;9.38;7.15;;;;;;;20.09;47.65;98842.25;5073734;28;20048;-48
2023/01/17 01:33:51;;;;;;;11.60;8.75;;;;;;;19.94;46.69;98829.66;5076614;28;20491;-49
2023/01/17 01:36:19;;;;;;;9.20;7.45;;;;;;;19.94;46.67;98840.41;5076716;28;20037;-49
2023/01/17 01:38:47;;;;;;;9.45;6.97;;;;;;;19.92;46.86;98845.09;5077060;28;20044;-49
2023/01/17 01:41:14;;;;;;;9.25;7.10;;;;;;;19.93;46.72;98840.56;5076617;28;20040;-49
2023/01/17 01:43:54;;;;;;;9.15;6.85;;;;;;;19.92;46.60;98844.28;5076252;28;20063;-49
2023/01/17 01:46:27;;;;;;;10.63;7.25;;;;;;;19.91;46.90;98851.50;5076608;28;20048;-52
2023/01/17 01:49:00;;;;;;;9.85;7.30;;;;;;;19.91;47.11;98846.13;5076606;28;20147;-49
2023/01/17 01:51:32;;;;;;;9.35;6.82;;;;;;;19.91;46.93;98840.75;5075407;28;20051;-48
2023/01/17 01:54:08;;;;;;;8.63;6.45;;;;;;;19.92;46.75;98844.28;5076544;28;20462;-50
2023/01/17 01:56:37;;;;;;;10.43;7.50;;;;;;;19.91;47.08;98835.38;5076350;28;20483;-52
2023/01/17 01:59:08;;;;;;;9.57;7.32;;;;;;;19.91;47.03;98854.19;5076833;28;20056;-50
2023/01/17 02:01:36;;;;;;;9.05;7.57;;;;;;;19.91;46.69;98851.50;5076547;28;20052;-49
2023/01/17 02:04:08;;;;;;;9.73;6.90;;;;;;;19.90;47.11;98851.69;5076290;28;20491;-49
2023/01/17 02:06:44;;;;;;;9.93;7.68;;;;;;;19.90;46.87;98851.69;5076349;28;20391;-51
2023/01/17 02:09:13;;;;;;;7.75;6.57;;;;;;;19.89;46.89;98848.19;5074989;28;20055;-57
2023/01/17 02:11:42;;;;;;;9.38;7.78;;;;;;;19.89;47.25;98840.13;5076209;28;20045;-56
2023/01/17 02:14:17;;;;;;;9.77;7.03;;;;;;;19.90;46.62;98851.69;5075056;28;20394;-56
2023/01/17 02:17:02;;;;;;;8.63;7.20;;;;;;;19.89;46.84;98844.63;5076216;28;20052;-56
2023/01/17 02:19:57;;;;;;;14.38;7.85;;;;;;;19.89;46.68;98847.31;5076103;28;20386;-56
2023/01/17 02:22:24;;;;;;;9.82;7.97;;;;;;;19.89;46.61;98852.69;5075889;28;20048;-56
2023/01/17 02:25:23;;;;;;;7.70;6.72;;;;;;;19.88;46.63;98848.34;5075984;28;20402;-56
2023/01/17 02:28:13;;;;;;;8.63;6.63;;;;;;;19.89;46.70;98847.31;5075828;28;20040;-56
2023/01/17 02:30:55;;;;;;;8.85;6.78;;;;;;;19.86;46.38;98840.50;5075622;28;20051;-51
2023/01/17 02:33:38;;;;;;;11.45;7.32;;;;;;;19.86;46.95;98832.44;5075404;28;20513;-51
2023/01/17 02:36:09;;;;;;;9.23;6.75;;;;;;;19.86;46.77;98824.38;5076098;28;20051;-49
2023/01/17 02:38:44;;;;;;;8.32;6.60;;;;;;;19.86;46.85;98823.53;5075874;28;20048;-50
2023/01/17 02:41:22;;;;;;;9.45;6.93;;;;;;;19.85;46.66;98828.09;5075983;28;20048;-52
2023/01/17 02:43:50;;;;;;;10.32;7.65;;;;;;;19.85;46.57;98827.22;5075524;28;20048;-49
2023/01/17 02:46:17;;;;;;;7.82;6.65;;;;;;;19.85;46.74;98824.53;5075416;28;20378;-50
2023/01/17 02:48:45;;;;;;;8.25;7.35;;;;;;;19.84;46.89;98815.66;5075687;28;20044;-56
2023/01/17 02:51:32;;;;;;;9.23;6.68;;;;;;;19.84;46.79;98810.28;5075464;28;20048;-55
2023/01/17 02:54:14;;;;;;;7.63;6.68;;;;;;;19.84;46.95;98799.53;5075525;28;20399;-56
2023/01/17 02:56:59;;;;;;;7.97;7.05;;;;;;;19.84;47.10;98806.78;5075222;28;20045;-55
2023/01/17 02:59:49;;;;;;;8.13;6.72;;;;;;;19.83;47.19;98807.78;5075398;28;20048;-51
2023/01/17 03:02:22;;;;;;;9.40;7.43;;;;;;;19.83;46.93;98807.78;5075241;28;20044;-49
2023/01/17 03:05:02;;;;;;;8.20;6.47;;;;;;;19.83;47.17;98803.25;5075394;28;20085;-51
2023/01/17 03:07:31;;;;;;;8.63;6.78;;;;;;;19.83;46.76;98805.09;5075346;28;20402;-51
2023/01/17 03:10:02;;;;;;;9.32;6.88;;;;;;;19.82;47.04;98796.22;5075427;28;20048;-54
2023/01/17 03:12:32;;;;;;;8.60;7.40;;;;;;;19.82;47.12;98798.09;5075026;28;20049;-54
2023/01/17 03:14:59;;;;;;;10.93;7.30;;;;;;;19.81;46.97;98788.34;5074857;28;20071;-53
2023/01/17 03:17:31;;;;;;;8.82;6.68;;;;;;;19.81;47.06;98794.56;5074951;28;20044;-54
2023/01/17 03:19:59;;;;;;;9.32;7.30;;;;;;;19.81;47.11;98791.03;5075159;28;20410;-56
2023/01/17 03:22:26;;;;;;;8.02;6.65;;;;;;;19.80;47.11;98789.38;5074835;28;20044;-57
2023/01/17 03:24:53;;;;;;;9.65;7.25;;;;;;;19.80;46.84;98779.44;5074770;28;20479;-57
2023/01/17 03:27:20;;;;;;;8.70;6.95;;;;;;;19.80;46.94;98775.94;5074851;28;20044;-56
2023/01/17 03:29:48;;;;;;;8.70;7.13;;;;;;;19.79;46.91;98777.78;5074774;28;20051;-50
2023/01/17 03:32:15;;;;;;;9.68;7.35;;;;;;;19.80;47.20;98779.44;5074632;28;20048;-52
2023/01/17 03:34:42;;;;;;;7.75;6.25;;;;;;;19.80;47.24;98770.56;5074521;28;20052;-51
2023/01/17 03:37:10;;;;;;;7.97;7.00;;;;;;;19.80;47.32;98790.19;5074394;28;20056;-49
2023/01/17 03:39:37;;;;;;;8.88;7.35;;;;;;;19.80;46.88;98786.69;5074839;28;20055;-49
2023/01/17 03:42:04;;;;;;;8.55;7.15;;;;;;;19.80;46.97;98786.69;5074319;28;20041;-49
2023/01/17 03:44:33;;;;;;;9.93;7.82;;;;;;;19.79;46.74;98785.84;5074020;28;20060;-50
2023/01/17 03:47:00;;;;;;;7.90;6.28;;;;;;;19.79;47.16;98779.66;5072953;28;20052;-49
2023/01/17 03:49:28;;;;;;;9.43;7.47;;;;;;;19.79;47.00;98766.22;5074134;28;20419;-48
2023/01/17 03:51:55;;;;;;;8.68;6.85;;;;;;;19.78;47.18;98764.56;5074135;28;20048;-49
2023/01/17 03:54:22;;;;;;;8.77;6.18;;;;;;;19.79;47.09;98763.53;5074079;28;20056;-50
2023/01/17 03:56:49;;;;;;;8.82;6.93;;;;;;;19.78;46.95;98748.44;5073984;28;20055;-49
2023/01/17 03:59:17;;;;;;;7.70;6.28;;;;;;;19.78;47.24;98759.19;5074168;28;20406;-56
2023/01/17 04:01:44;;;;;;;8.70;7.20;;;;;;;19.78;47.63;98754.66;5073927;28;20044;-56
2023/01/17 04:04:11;;;;;;;7.65;6.32;;;;;;;19.78;48.00;98759.19;5073968;28;20048;-57
2023/01/17 04:06:39;;;;;;;9.15;6.95;;;;;;;19.78;47.72;98759.19;5073994;28;20402;-56
2023/01/17 04:09:06;;;;;;;9.57;7.20;;;;;;;19.77;47.67;98763.72;5074192;28;20041;-50
2023/01/17 04:11:33;;;;;;;9.63;7.20;;;;;;;19.78;47.67;98757.34;5073953;28;20466;-50
2023/01/17 04:14:01;;;;;;;9.40;6.40;;;;;;;19.77;48.00;98739.56;5073753;28;20041;-51
2023/01/17 04:16:30;;;;;;;7.63;6.45;;;;;;;19.78;47.81;98741.22;5073805;28;20049;-50
2023/01/17 04:18:58;;;;;;;9.23;7.45;;;;;;;19.77;48.02;98750.31;5073626;28;20041;-58
2023/01/17 04:21:25;;;;;;;9.18;7.30;;;;;;;19.76;47.62;98752.13;5073547;28;20483;-56
2023/01/17 04:23:52;;;;;;;9.73;7.53;;;;;;;19.76;47.89;98749.44;5073608;28;20063;-56
2023/01/17 04:26:19;;;;;;;9.20;7.20;;;;;;;19.76;47.80;98745.94;5073734;28;20513;-57
2023/01/17 04:28:47;;;;;;;10.88;7.45;;;;;;;19.75;47.75;98731.69;5073889;28;20037;-56
2023/01/17 04:31:15;;;;;;;8.85;7.18;;;;;;;19.75;47.72;98742.41;5073669;28;20406;-57
2023/01/17 04:33:43;;;;;;;8.43;6.55;;;;;;;19.74;47.51;98732.72;5073577;28;20037;-56
2023/01/17 04:36:10;;;;;;;8.82;6.70;;;;;;;19.74;47.67;98735.41;5073651;28;20044;-56
2023/01/17 04:38:37;;;;;;;8.35;6.60;;;;;;;19.74;47.74;98727.34;5073665;28;20041;-56
2023/01/17 04:41:04;;;;;;;8.27;6.68;;;;;;;19.74;47.49;98732.72;5073400;28;20048;-56
2023/01/17 04:43:32;;;;;;;9.65;7.15;;;;;;;19.73;47.79;98731.06;5073479;28;20055;-57
2023/01/17 04:45:59;;;;;;;9.38;7.07;;;;;;;19.73;47.77;98717.63;5073480;28;20493;-56
2023/01/17 04:48:27;;;;;;;11.38;6.88;;;;;;;19.72;47.76;98707.88;5073627;28;20064;-57
2023/01/17 04:51:02;;;;;;;9.60;6.95;;;;;;;19.72;47.65;98699.81;5072322;28;20047;-56
2023/01/17 04:53:30;;;;;;;9.02;7.43;;;;;;;19.72;47.33;98686.41;5073420;28;20483;-57
2023/01/17 04:55:57;;;;;;;8.93;7.22;;;;;;;19.71;47.51;98665.97;5073272;28;20555;-57
2023/01/17 04:58:25;;;;;;;9.45;7.50;;;;;;;19.72;47.07;98686.41;5076743;28;20423;-48
2023/01/17 05:00:53;;;;;;;9.05;6.57;;;;;;;19.72;47.50;98699.00;5077367;28;20059;-50
2023/01/17 05:03:21;;;;;;;10.00;6.93;;;;;;;19.70;47.66;98691.16;5077782;28;20048;-48
2023/01/17 05:05:49;;;;;;;8.68;6.75;;;;;;;19.72;47.34;98685.56;5077335;28;20041;-49
2023/01/17 05:08:16;;;;;;;9.68;7.20;;;;;;;19.70;47.25;98696.50;5077242;28;20044;-56
2023/01/17 05:10:45;;;;;;;11.10;7.30;;;;;;;19.70;47.58;98688.47;5077143;28;20049;-57
2023/01/17 05:13:13;;;;;;;9.93;6.88;;;;;;;19.69;47.43;98697.53;5077359;28;20059;-56
2023/01/17 05:15:40;;;;;;;9.60;6.80;;;;;;;19.70;47.48;98703.75;5077159;28;20052;-56
2023/01/17 05:18:13;;;;;;;10.40;7.10;;;;;;;19.69;47.53;98700.22;5077269;28;20045;-56
2023/01/17 05:20:40;;;;;;;8.43;6.45;;;;;;;19.69;47.41;98699.41;5075790;28;20048;-56
2023/01/17 05:23:08;;;;;;;10.90;6.60;;;;;;;19.69;47.53;98696.72;5076995;28;20466;-56
2023/01/17 05:25:36;;;;;;;9.40;6.93;;;;;;;19.68;47.54;98701.22;5075751;28;20055;-57
2023/01/17 05:28:04;;;;;;;9.73;7.22;;;;;;;19.68;47.64;98693.16;5077118;28;20052;-56
2023/01/17 05:30:32;;;;;;;8.88;7.18;;;;;;;19.68;47.53;98693.16;5076902;28;20052;-49
2023/01/17 05:32:59;;;;;;;14.07;6.35;;;;;;;19.67;47.27;98686.13;5076923;28;20051;-50
2023/01/17 05:35:31;;;;;;;7.80;6.20;;;;;;;19.67;47.50;98686.13;5076860;28;20081;-52
2023/01/17 05:38:00;;;;;;;9.07;6.95;;;;;;;19.67;47.52;98675.41;5076948;28;20049;-53
2023/01/17 05:40:30;;;;;;;8.57;6.50;;;;;;;19.67;47.48;98683.47;5076588;28;20052;-57
2023/01/17 05:42:59;;;;;;;9.88;6.55;;;;;;;19.67;47.45;98685.31;5076642;28;20049;-57
2023/01/17 05:45:28;;;;;;;8.82;6.40;;;;;;;19.67;47.71;98683.47;5076637;28;20041;-57
2023/01/17 05:47:57;;;;;;;8.80;7.13;;;;;;;19.66;47.74;98675.59;5076823;28;20052;-57
2023/01/17 05:50:33;;;;;;;9.48;7.05;;;;;;;19.66;47.58;98659.50;5076637;28;20462;-57
2023/01/17 05:53:04;;;;;;;;;;;;;;;19.66;47.52;98662.19;5077074;28;20060;-57
2023/01/17 05:55:32;;;;;;;9.32;7.53;;;;;;;19.65;47.58;98671.25;5076128;28;19927;-57
2023/01/17 05:58:01;;;;;;;10.95;6.97;;;;;;;19.66;47.81;98664.88;5076480;28;20044;-55
2023/01/17 06:00:29;;;;;;;8.20;6.68;;;;;;;19.65;47.58;98657.84;5076724;28;20052;-50
2023/01/17 06:02:59;;;;;;;8.10;6.50;;;;;;;19.64;47.69;98654.28;5076397;28;20048;-49
2023/01/17 06:05:28;;;;;;;10.23;6.93;;;;;;;19.64;47.59;98654.28;5076046;28;20059;-50
2023/01/17 06:07:58;;;;;;;9.10;7.13;;;;;;;19.65;47.61;98645.25;5076028;28;20414;-57
2023/01/17 06:10:28;;;;;;;8.05;6.65;;;;;;;19.65;47.80;98647.94;5075097;28;20067;-57
2023/01/17 06:13:07;;;;;;;8.23;6.53;;;;;;;19.64;47.42;98656.16;5075857;28;20052;-57
2023/01/17 06:15:36;;;;;;;9.07;7.22;;;;;;;19.64;47.70;98667.72;5076333;28;20379;-56
2023/01/17 06:18:12;;;;;;;9.27;7.00;;;;;;;19.64;47.80;98677.63;5076489;28;20052;-52
2023/01/17 06:20:40;;;;;;;8.05;6.88;;;;;;;19.64;47.74;98669.56;5076213;28;20052;-49
2023/01/17 06:23:10;;;;;;;8.07;6.57;;;;;;;19.63;47.56;98668.75;5075835;28;20052;-53
2023/01/17 06:25:40;;;;;;;10.60;6.93;;;;;;;19.64;47.59;98670.41;5075924;28;20052;-52
2023/01/17 06:28:07;;;;;;;7.82;6.65;;;;;;;19.63;47.44;98668.75;5076112;28;20055;-55
2023/01/17 06:30:35;;;;;;;9.00;7.00;;;;;;;19.62;47.48;98659.03;5075588;28;20044;-58
2023/01/17 06:33:02;;;;;;;7.88;6.68;;;;;;;19.62;47.41;98655.53;5075699;28;20044;-56
2023/01/17 06:35:30;;;;;;;9.23;6.55;;;;;;;19.62;47.60;98656.34;5076758;28;20048;-56
2023/01/17 06:37:58;;;;;;;9.30;6.40;;;;;;;19.62;47.64;98659.03;5075889;28;20391;-54
2023/01/17 06:40:29;;;;;;;7.85;6.90;;;;;;;19.62;47.50;98655.53;5075549;28;20483;-52
2023/01/17 06:43:04;;;;;;;9.00;7.00;;;;;;;19.61;47.46;98649.31;5075639;28;20060;-53
2023/01/17 06:45:33;;;;;;;8.57;7.35;;;;;;;19.61;47.39;98643.97;5075568;28;20045;-49
2023/01/17 06:48:03;;;;;;;9.30;6.88;;;;;;;19.60;47.42;98641.41;5074368;28;20059;-56
2023/01/17 06:50:31;;;;;;;8.48;6.65;;;;;;;19.60;47.63;98633.34;5075565;28;20044;-56
2023/01/17 06:53:04;;;;;;;9.18;6.45;;;;;;;19.62;47.66;98637.56;5075405;28;20059;-56
2023/01/17 06:55:33;;;;;;;12.98;6.97;;;;;;;19.60;47.43;98634.19;5075934;28;20048;-56
2023/01/17 06:58:02;;;;;;;9.32;6.95;;;;;;;19.60;47.38;98642.22;5075255;28;20052;-52
2023/01/17 07:00:33;;;;;;;10.30;6.93;;;;;;;19.59;47.38;98645.94;5075056;28;20399;-56
2023/01/17 07:03:01;;;;;;;9.02;7.20;;;;;;;19.59;47.45;98643.25;5075227;28;20055;-55
2023/01/17 07:05:28;;;;;;;9.57;6.72;;;;;;;19.58;47.42;98636.25;5075098;28;20052;-57
2023/01/17 07:07:56;;;;;;;9.38;7.18;;;;;;;19.58;47.23;98644.28;5075036;28;20060;-48
2023/01/17 07:10:23;;;;;;;9.77;7.38;;;;;;;19.58;47.30;98640.78;5074874;28;20037;-56
2023/01/17 07:12:57;;;;;;;9.38;7.30;;;;;;;19.58;47.39;98640.78;5075079;28;20048;-57
2023/01/17 07:15:24;;;;;;;;;;;;;;;19.58;47.34;98635.41;5075552;28;20379;-57
2023/01/17 07:17:52;;;;;;;8.25;6.32;;;;;;;19.57;47.56;98637.25;5075100;28;19927;-56
2023/01/17 07:20:19;;;;;;;8.50;6.45;;;;;;;19.57;47.55;98629.22;5074958;28;20402;-50
2023/01/17 07:22:46;;;;;;;10.52;7.28;;;;;;;19.58;47.61;98635.41;5074720;28;20487;-49
2023/01/17 07:25:14;;;;;;;7.75;6.93;;;;;;;19.57;47.54;98633.72;5074806;28;20044;-50
2023/01/17 07:27:41;;;;;;;9.57;6.70;;;;;;;19.57;47.70;98631.91;5074746;28;20049;-56
2023/01/17 07:30:10;;;;;;;8.38;6.10;;;;;;;19.58;47.64;98627.34;5074792;28;20048;-57
2023/01/17 07:32:37;;;;;;;8.35;6.95;;;;;;;19.59;47.55;98618.28;5074552;28;20512;-57
2023/01/17 07:35:05;;;;;;;9.43;7.70;;;;;;;19.56;47.40;98614.09;5074500;28;20402;-57
2023/01/17 07:37:32;;;;;;;9.35;7.00;;;;;;;19.57;47.52;98628.34;5074523;28;20044;-57
2023/01/17 07:40:01;;;;;;;11.13;7.05;;;;;;;19.56;47.51;98606.06;5074566;28;20052;-54
2023/01/17 07:42:29;;;;;;;9.75;6.65;;;;;;;19.56;47.50;98592.63;5074279;28;20049;-50
2023/01/17 07:44:56;;;;;;;10.68;7.60;;;;;;;19.55;46.89;98599.03;5073185;28;20075;-49
2023/01/17 07:47:23;;;;;;;9.95;7.25;;;;;;;19.53;47.20;98609.13;5074254;28;20482;-51
2023/01/17 07:49:50;;;;;;;9.32;6.57;;;;;;;19.54;47.61;98592.00;5074217;28;20045;-56
2023/01/17 07:52:18;;;;;;;10.18;6.28;;;;;;;19.54;47.46;98592.00;5074227;28;20055;-56
2023/01/17 07:54:45;;;;;;;8.27;6.63;;;;;;;19.54;47.30;98589.31;5074140;28;20521;-56
2023/01/17 07:57:12;;;;;;;9.30;6.70;;;;;;;19.54;47.42;98586.63;5074146;28;20052;-57
2023/01/17 07:59:39;;;;;;;9.60;6.93;;;;;;;19.55;47.14;98576.72;5074216;28;20036;-46
2023/01/17 08:02:16;;;;;;;10.98;6.63;;;;;;;19.54;47.17;98549.06;5074048;28;20037;-46
2023/01/17 08:04:44;;;;;;;9.15;6.93;;;;;;;19.54;47.23;98537.50;5073910;28;20048;-46
2023/01/17 08:07:12;;;;;;;7.72;6.65;;;;;;;19.54;47.28;98535.66;5074017;28;20047;-51
2023/01/17 08:09:41;;;;;;;9.27;6.07;;;;;;;19.54;47.37;98537.50;5072574;28;20402;-55
2023/01/17 08:12:09;;;;;;;10.15;6.93;;;;;;;19.54;47.20;98530.28;5073335;28;20052;-55
2023/01/17 08:14:36;;;;;;;10.48;6.82;;;;;;;19.55;47.45;98523.88;5073638;28;20049;-56
2023/01/17 08:17:05;;;;;;;11.57;6.75;;;;;;;19.55;47.62;98515.00;5073917;28;20399;-55
2023/01/17 08:19:32;;;;;;;9.68;6.22;;;;;;;19.55;47.78;98509.63;5073631;28;20040;-49
2023/01/17 08:22:00;;;;;;;7.47;6.15;;;;;;;19.54;47.61;98492.72;5073327;28;20048;-48
2023/01/17 08:24:27;;;;;;;9.65;6.35;;;;;;;19.53;47.59;98485.69;5073411;28;20071;-48
2023/01/17 08:26:55;;;;;;;14.05;8.85;;;;;;;19.50;46.47;98484.19;5073592;28;20044;-47
2023/01/17 08:29:23;;;;;;;18.17;12.50;;;;;;;19.49;45.09;98487.09;5073415;28;20036;-57
2023/01/17 08:31:50;;;;;;;21.33;14.32;;;;;;;19.45;44.44;98491.16;5073087;28;20367;-56
2023/01/17 08:34:18;;;;;;;20.30;14.70;;;;;;;19.40;44.26;98486.34;5073422;28;20048;-56
2023/01/17 08:36:46;;;;;;;18.88;14.85;;;;;;;19.36;43.80;98466.28;5072850;28;20044;-56
2023/01/17 08:39:14;;;;;;;19.50;15.10;;;;;;;19.32;43.51;98461.47;5073473;28;20399;-51
2023/01/17 08:41:41;;;;;;;22.77;16.20;;;;;;;19.28;43.49;98461.03;5073468;28;20049;-50
2023/01/17 08:44:08;;;;;;;21.90;15.07;;;;;;;19.24;43.17;98460.59;5073020;28;20060;-49
2023/01/17 08:46:39;;;;;;;22.50;16.10;;;;;;;19.23;43.15;98455.41;5073075;28;20055;-48
2023/01/17 08:49:09;;;;;;;21.67;15.70;;;;;;;19.21;43.14;98471.69;5073110;28;20505;-47
2023/01/17 08:51:37;;;;;;;19.58;13.73;;;;;;;19.19;44.01;98459.47;5072937;28;20406;-47
2023/01/17 08:54:05;;;;;;;19.67;14.38;;;;;;;19.18;43.84;98464.03;5073185;28;20049;-49
2023/01/17 08:56:32;;;;;;;27.25;20.27;;;;;;;18.91;42.75;98462.84;5072240;28;20053;-50
2023/01/17 08:59:00;;;;;;;27.23;19.45;;;;;;;18.65;42.59;98467.84;5073124;28;20041;-49
2023/01/17 09:01:27;;;;;;;27.67;21.42;;;;;;;18.36;42.10;98468.66;5072958;28;20036;-51
2023/01/17 09:03:55;;;;;;;29.60;22.38;;;;;;;18.11;42.57;98458.19;5073211;28;20368;-56
2023/01/17 09:06:22;;;;;;;26.45;20.38;;;;;;;18.01;44.56;98444.19;5073164;28;20409;-55
2023/01/17 09:08:50;;;;;;;25.63;18.02;;;;;;;18.09;46.89;98437.94;5073064;28;20056;-47
2023/01/17 09:11:18;;;;;;;18.65;13.90;;;;;;;18.20;47.57;98441.00;5072914;28;20060;-49
2023/01/17 09:13:45;;;;;;;17.85;12.63;;;;;;;18.31;47.88;98444.25;5072920;28;20044;-47
2023/01/17 09:16:12;;;;;;;14.48;11.63;;;;;;;18.41;48.09;98439.47;5073103;28;20055;-47
2023/01/17 09:18:40;;;;;;;18.48;13.30;;;;;;;18.50;48.02;98435.66;5073144;28;20059;-56
2023/01/17 09:21:12;;;;;;;17.20;12.10;;;;;;;18.58;48.21;98443.63;5072877;28;20037;-56
2023/01/17 09:23:41;;;;;;;17.65;11.30;;;;;;;18.63;48.46;98433.16;5072993;28;20056;-50
2023/01/17 09:26:22;;;;;;;23.63;17.10;;;;;;;18.60;43.91;98433.56;5072873;28;20049;-50
2023/01/17 09:28:50;;;;;;;29.63;20.40;;;;;;;18.42;43.16;98441.13;5072964;28;20106;-49
2023/01/17 09:31:20;;;;;;;30.63;21.48;;;;;;;18.17;43.41;98440.53;5072234;28;20049;-49
2023/01/17 09:33:49;;;;;;;28.77;20.52;;;;;;;17.97;43.70;98448.25;5072795;28;20040;-49
2023/01/17 09:36:16;;;;;;;32.13;21.20;;;;;;;17.82;43.85;98452.72;5072737;28;20052;-49
2023/01/17 09:38:44;;;;;;;31.90;21.75;;;;;;;17.70;43.44;98454.94;5073080;28;20040;-50
2023/01/17 09:41:33;;;;;;;26.48;19.13;;;;;;;17.61;45.25;98446.16;5071736;28;20057;-56
2023/01/17 09:44:22;;;;;;;23.77;17.00;;;;;;;17.69;46.59;98437.25;5074762;28;20055;-55
2023/01/17 09:46:53;;;;;;;20.20;14.07;;;;;;;17.82;47.23;98452.72;5076575;28;20060;-56
2023/01/17 09:49:41;;;;;;;20.08;13.55;;;;;;;17.94;47.47;98446.75;5076743;28;20045;-47
2023/01/17 09:52:13;;;;;;;16.73;13.00;;;;;;;18.06;47.25;98446.34;5076484;28;20052;-49
2023/01/17 09:54:42;;;;;;;15.85;11.70;;;;;;;18.17;47.06;98451.25;5076339;28;20409;-47
2023/01/17 09:57:37;;;;;;;16.05;11.70;;;;;;;18.25;46.88;98449.31;5075974;28;20071;-48
2023/01/17 10:00:24;;;;;;;13.93;10.20;;;;;;;18.32;46.92;98437.91;5076369;28;20041;-56
2023/01/17 10:03:18;;;;;;;15.55;11.18;;;;;;;18.39;46.89;98445.00;5076334;28;20040;-56
2023/01/17 10:05:57;;;;;;;;;;;;;;;18.44;46.83;98447.97;5076528;28;20059;-56
2023/01/17 10:08:43;;;;;;;16.42;10.90;;;;;;;18.48;46.59;98443.91;5075426;28;19920;-46
2023/01/17 10:11:26;;;;;;;13.90;9.73;;;;;;;18.52;46.63;98442.53;5076067;28;20045;-48
2023/01/17 10:14:30;;;;;;;13.07;9.87;;;;;;;18.57;46.64;98435.78;5076003;28;20091;-50
2023/01/17 10:17:20;;;;;;;12.43;9.50;;;;;;;18.59;46.74;98429.19;5076204;28;20285;-48
2023/01/17 10:20:12;;;;;;;13.57;9.68;;;;;;;18.62;46.69;98412.75;5074667;28;20055;-56
2023/01/17 10:22:53;;;;;;;14.60;9.48;;;;;;;18.65;46.79;98407.03;5075112;28;20049;-57
2023/01/17 10:25:42;;;;;;;14.40;9.80;;;;;;;18.67;46.80;98404.16;5075634;28;20044;-57
2023/01/17 10:28:12;;;;;;;13.77;9.63;;;;;;;18.67;46.69;98399.63;5075745;28;20052;-50
2023/01/17 10:30:56;;;;;;;13.05;9.20;;;;;;;18.70;46.63;98403.81;5075351;28;20044;-48
2023/01/17 10:33:29;;;;;;;12.10;9.18;;;;;;;18.72;46.77;98397.25;5075352;28;20082;-48
2023/01/17 10:36:02;;;;;;;13.88;8.55;;;;;;;18.73;46.69;98385.53;5075409;28;20044;-48
2023/01/17 10:38:34;;;;;;;12.85;8.00;;;;;;;18.75;46.73;98380.78;5075386;28;20055;-56
2023/01/17 10:41:07;;;;;;;13.00;8.60;;;;;;;18.75;46.67;98375.44;5075369;28;20052;-57
2023/01/17 10:43:44;;;;;;;14.80;9.70;;;;;;;18.77;46.70;98380.63;5075024;28;20834;-57
2023/01/17 10:46:27;;;;;;;12.73;7.97;;;;;;;18.78;46.63;98374.22;5074031;28;20060;-57
2023/01/17 10:48:55;;;;;;;12.60;8.27;;;;;;;18.80;46.75;98382.06;5075583;28;20052;-55
2023/01/17 10:51:33;;;;;;;11.48;8.55;;;;;;;18.81;46.64;98389.94;5074459;28;20055;-57
2023/01/17 10:54:26;;;;;;;11.77;8.32;;;;;;;18.81;46.41;98375.72;5074660;28;20408;-57
2023/01/17 10:56:53;;;;;;;11.45;8.30;;;;;;;18.83;46.66;98362.94;5074363;28;20052;-57
2023/01/17 10:59:32;;;;;;;9.65;6.95;;;;;;;18.83;46.61;98361.09;5074643;28;20041;-47
2023/01/17 11:02:06;;;;;;;11.18;7.30;;;;;;;18.83;46.59;98355.72;5074681;28;20047;-48
2023/01/17 11:04:39;;;;;;;10.55;7.93;;;;;;;18.84;46.48;98348.50;5074803;28;20052;-47
2023/01/17 11:07:15;;;;;;;10.10;7.53;;;;;;;18.84;46.73;98360.09;5074161;28;20052;-52
2023/01/17 11:09:48;;;;;;;12.35;7.88;;;;;;;18.86;46.83;98349.16;5074544;28;20056;-56
2023/01/17 11:12:21;;;;;;;;;;;;;;;18.86;47.00;98339.28;5074956;28;20048;-57
2023/01/17 11:15:09;;;;;;;9.18;6.70;;;;;;;18.86;47.04;98328.56;5074622;28;19920;-57
2023/01/17 11:17:45;;;;;;;9.05;6.70;;;;;;;18.87;47.27;98315.97;5070718;28;20064;-57
2023/01/17 11:20:26;;;;;;;8.98;6.55;;;;;;;18.87;47.38;98307.94;5074678;28;20055;-57
2023/01/17 11:23:05;;;;;;;9.02;6.43;;;;;;;18.88;47.48;98314.94;5074633;28;20401;-56
2023/01/17 11:25:33;;;;;;;9.25;6.22;;;;;;;18.89;47.80;98311.25;5074719;28;20462;-57
2023/01/17 11:28:03;;;;;;;19.30;13.25;;;;;;;18.85;43.81;98302.78;5074781;28;20414;-48
2023/01/17 11:30:32;;;;;;;20.40;14.52;;;;;;;18.76;43.04;98304.75;5074344;28;20045;-49
2023/01/17 11:33:04;;;;;;;12.35;10.77;;;;;;;18.73;44.87;98315.84;5074242;28;20051;-48
2023/01/17 11:35:35;;;;;;;9.55;7.50;;;;;;;18.74;46.55;98309.44;5073213;28;20052;-48
2023/01/17 11:38:20;;;;;;;10.07;6.78;;;;;;;18.76;47.27;98302.06;5074333;28;20044;-56
2023/01/17 11:40:49;;;;;;;11.13;6.90;;;;;;;18.78;47.26;98300.00;5074404;28;20051;-47
2023/01/17 11:43:26;;;;;;;11.65;7.22;;;;;;;18.80;47.30;98297.16;5073491;28;20049;-47
2023/01/17 11:46:22;;;;;;;8.45;6.95;;;;;;;18.82;47.17;98291.59;5073917;28;20048;-48
2023/01/17 11:48:55;;;;;;;10.85;6.45;;;;;;;18.83;47.17;98291.41;5074101;28;20049;-47
2023/01/17 11:51:27;;;;;;;9.57;7.60;;;;;;;18.84;47.22;98284.19;5073605;28;20055;-49
2023/01/17 11:54:06;;;;;;;10.25;7.30;;;;;;;18.86;47.34;98276.78;5073623;28;20044;-48
2023/01/17 11:56:36;;;;;;;7.45;5.82;;;;;;;18.86;47.23;98268.75;5072084;28;20045;-48
2023/01/17 11:59:12;;;;;;;8.63;6.10;;;;;;;18.86;47.24;98276.78;5073522;28;20040;-57
2023/01/17 12:01:44;;;;;;;9.38;6.43;;;;;;;18.87;47.02;98279.28;5073556;28;20044;-56
2023/01/17 12:04:18;;;;;;;8.90;6.25;;;;;;;18.88;47.08;98277.41;5073603;28;20057;-57
2023/01/17 12:06:58;;;;;;;9.00;5.75;;;;;;;18.89;47.15;98271.06;5072601;28;20360;-56
2023/01/17 12:09:54;;;;;;;8.02;6.18;;;;;;;18.89;47.32;98271.88;5073567;28;20451;-57
2023/01/17 12:15:37;;;;;;;7.40;5.80;;;;;;;18.89;47.00;98257.66;5073468;28;20051;-56
2023/01/17 12:18:10;;;;;;;7.95;5.57;;;;;;;18.90;47.07;98253.94;5073598;28;20075;-57
2023/01/17 12:21:16;;;;;;;7.45;5.68;;;;;;;18.91;46.89;98237.66;5073564;28;20044;-57
2023/01/17 12:23:52;;;;;;;8.13;5.45;;;;;;;18.92;46.89;98238.47;5073732;28;20036;-57
2023/01/17 12:26:39;;;;;;;9.25;5.45;;;;;;;18.92;46.98;98243.84;5073417;28;20049;-57
2023/01/17 12:29:40;;;;;;;10.60;6.60;;;;;;;18.92;47.29;98233.97;5073466;28;20040;-47
2023/01/17 12:32:11;;;;;;;10.77;6.35;;;;;;;18.93;47.23;98224.06;5073156;28;20466;-48
2023/01/17 12:34:49;;;;;;;11.48;6.57;;;;;;;18.94;47.51;98223.03;5073370;28;20048;-48
2023/01/17 12:37:33;;;;;;;12.85;6.70;;;;;;;18.94;47.79;98215.00;5073264;28;20049;-48
2023/01/17 12:40:15;;;;;;;14.57;6.55;;;;;;;18.93;48.11;98192.72;5072405;28;20056;-57
2023/01/17 12:42:51;;;;;;;14.18;7.10;;;;;;;18.94;48.24;98180.16;5073108;28;20051;-57
2023/01/17 12:45:30;;;;;;;16.95;8.45;;;;;;;18.95;48.57;98197.88;5073222;28;20040;-56
2023/01/17 12:48:04;;;;;;;14.45;7.65;;;;;;;18.95;50.40;98192.53;5071191;28;20067;-47
2023/01/17 12:50:42;;;;;;;11.85;6.57;;;;;;;18.95;52.93;98192.53;5072828;28;20040;-51
2023/01/17 12:53:31;;;;;;;15.25;7.03;;;;;;;18.93;54.24;98200.78;5072602;28;20455;-48
2023/01/17 12:56:21;;;;;;;15.32;7.30;;;;;;;18.92;54.80;98209.00;5073152;28;20402;-47
2023/01/17 12:59:05;;;;;;;18.27;7.57;;;;;;;18.90;55.58;98194.97;5073289;28;20048;-47
2023/01/17 13:01:38;;;;;;;;;;;;;;;18.88;55.42;98195.16;5072606;28;20063;-49
2023/01/17 13:04:06;;;;;;;14.20;7.90;;;;;;;18.88;56.28;98194.31;5072919;28;19920;-48
2023/01/17 13:07:26;;;;;;;10.95;7.38;;;;;;;18.87;56.31;98195.34;5072972;28;20048;-49
2023/01/17 13:10:24;;;;;;;11.20;7.63;;;;;;;18.86;56.93;98207.09;5050592;28;20061;-53
2023/01/17 13:12:56;;;;;;;12.43;7.38;;;;;;;18.85;57.05;98203.59;5072876;28;20044;-55
2023/01/17 13:15:30;;;;;;;12.23;7.00;;;;;;;18.85;57.28;98197.41;5072791;28;20044;-55